Time;durP1;ratioP1;P1;durP2;ratioP2;P2;SDS_P1;SDS_P2;PMS_P1;PMS_P2;Temp;Humidity;BMP_temperature;BMP_pressure;BME280_temperature;BME280_humidity;BME280_pressure;Samples;Min_cycle;Max_cycle;Signal;HPM_P1;HPM_P2
2023/08/13 00:00:10;;;;;;;0.10;0.10;;;15.30;99.90;;;;;;5037663;28;20188;-90
2023/08/13 00:02:36;;;;;;;0.10;0.10;;;15.30;99.90;;;;;;5030931;28;20187;-91
2023/08/13 00:05:03;;;;;;;0.10;0.10;;;15.30;99.90;;;;;;5029420;28;20442;-90
2023/08/13 00:07:28;;;;;;;0.10;0.10;;;15.20;99.90;;;;;;5031877;28;20183;-91
2023/08/13 00:09:55;;;;;;;0.10;0.10;;;15.10;99.90;;;;;;5031696;28;20468;-90
2023/08/13 00:12:21;;;;;;;0.10;0.10;;;15.10;99.90;;;;;;5032575;28;20171;-90
2023/08/13 00:14:47;;;;;;;0.10;0.10;;;15.10;99.90;;;;;;5030779;28;20504;-89
2023/08/13 00:17:13;;;;;;;0.10;0.10;;;14.90;99.90;;;;;;5029501;28;20454;-91
2023/08/13 00:19:38;;;;;;;0.10;0.10;;;15.00;99.90;;;;;;5031301;28;20183;-90
2023/08/13 00:22:04;;;;;;;0.10;0.10;;;15.00;99.90;;;;;;5033173;28;20199;-90
2023/08/13 00:24:29;;;;;;;0.10;0.10;;;14.90;99.90;;;;;;5033348;28;20180;-90
2023/08/13 00:26:55;;;;;;;0.10;0.10;;;14.90;99.90;;;;;;5036201;28;20267;-91
2023/08/13 00:29:20;;;;;;;0.10;0.10;;;14.90;99.90;;;;;;5031144;28;20250;-90
2023/08/13 00:31:46;;;;;;;0.10;0.10;;;14.90;99.90;;;;;;5046427;28;20187;-89
2023/08/13 00:34:11;;;;;;;0.10;0.10;;;14.80;99.90;;;;;;5028585;28;20214;-91
2023/08/13 00:36:37;;;;;;;0.10;0.10;;;14.80;99.90;;;;;;5051072;28;20595;-90
2023/08/13 00:39:03;;;;;;;0.10;0.10;;;14.80;99.90;;;;;;5031929;28;20187;-90
2023/08/13 00:41:28;;;;;;;0.10;0.10;;;14.90;99.90;;;;;;5031591;28;20209;-91
2023/08/13 00:43:54;;;;;;;0.10;0.10;;;14.90;99.90;;;;;;5065477;28;20449;-91
2023/08/13 00:46:20;;;;;;;0.10;0.10;;;14.80;99.90;;;;;;5046264;28;20201;-89
2023/08/13 00:48:47;;;;;;;0.10;0.10;;;14.80;99.90;;;;;;5045636;28;20282;-88
2023/08/13 00:51:14;;;;;;;0.10;0.10;;;14.80;99.90;;;;;;5043762;28;20289;-88
2023/08/13 00:53:47;;;;;;;0.10;0.10;;;14.80;99.90;;;;;;5029517;28;20435;-89
2023/08/13 00:56:14;;;;;;;0.10;0.10;;;14.80;99.90;;;;;;5044632;28;20481;-89
2023/08/13 00:58:41;;;;;;;0.10;0.10;;;14.80;99.90;;;;;;5042755;28;20445;-89
2023/08/13 01:01:07;;;;;;;0.10;0.10;;;14.80;99.90;;;;;;5049989;28;20477;-88
2023/08/13 01:03:33;;;;;;;0.10;0.10;;;14.80;99.90;;;;;;5027559;28;20933;-88
2023/08/13 01:06:16;;;;;;;0.10;0.10;;;14.80;99.90;;;;;;5028577;28;20923;-89
2023/08/13 01:08:47;;;;;;;0.10;0.10;;;14.80;99.90;;;;;;5037740;28;20867;-88
2023/08/13 01:11:40;;;;;;;0.10;0.10;;;14.80;99.90;;;;;;5031012;28;20446;-89
2023/08/13 01:14:22;;;;;;;0.10;0.10;;;14.70;99.90;;;;;;5030374;28;20472;-89
2023/08/13 01:16:49;;;;;;;0.10;0.10;;;14.80;99.90;;;;;;5036520;28;20491;-88
2023/08/13 01:19:15;;;;;;;0.10;0.10;;;14.70;99.90;;;;;;5031414;28;20505;-89
2023/08/13 01:21:40;;;;;;;0.10;0.10;;;14.70;99.90;;;;;;5027796;28;21082;-89
2023/08/13 01:24:06;;;;;;;0.10;0.10;;;14.70;99.90;;;;;;5030578;28;20239;-88
2023/08/13 01:26:45;;;;;;;0.10;0.10;;;14.70;99.90;;;;;;5038717;28;20196;-89
2023/08/13 01:29:29;;;;;;;0.10;0.10;;;14.60;99.90;;;;;;5036950;28;20466;-89
2023/08/13 01:31:57;;;;;;;0.10;0.10;;;14.70;99.90;;;;;;5029749;28;20446;-88
2023/08/13 01:34:24;;;;;;;0.10;0.10;;;14.70;99.90;;;;;;5028444;28;20837;-90
2023/08/13 01:36:49;;;;;;;0.10;0.10;;;14.70;99.90;;;;;;5030025;28;20489;-87
2023/08/13 01:39:15;;;;;;;0.10;0.10;;;14.70;99.90;;;;;;5031597;28;20469;-88
2023/08/13 01:41:50;;;;;;;0.10;0.10;;;14.70;99.90;;;;;;5042240;28;20278;-89
2023/08/13 01:44:16;;;;;;;0.10;0.10;;;14.70;99.90;;;;;;5030543;28;20282;-87
2023/08/13 01:46:41;;;;;;;0.10;0.10;;;14.60;99.90;;;;;;5047516;28;20454;-89
2023/08/13 01:49:07;;;;;;;0.10;0.10;;;14.60;99.90;;;;;;5048558;28;20661;-88
2023/08/13 01:51:32;;;;;;;0.10;0.10;;;14.50;99.90;;;;;;5027720;28;20222;-88
2023/08/13 01:53:58;;;;;;;0.10;0.10;;;14.50;99.90;;;;;;5026891;28;20515;-89
2023/08/13 01:56:23;;;;;;;0.10;0.10;;;14.50;99.90;;;;;;5028616;28;20763;-91
2023/08/13 01:58:49;;;;;;;0.10;0.10;;;14.50;99.90;;;;;;5030404;28;20183;-90
2023/08/13 02:01:14;;;;;;;0.10;0.10;;;14.50;99.90;;;;;;5033416;28;20256;-89
2023/08/13 02:03:40;;;;;;;0.10;0.10;;;14.40;99.90;;;;;;5046627;28;20191;-90
2023/08/13 02:06:05;;;;;;;0.10;0.10;;;14.50;99.90;;;;;;5036673;28;20195;-90
2023/08/13 02:08:32;;;;;;;0.10;0.10;;;14.40;99.90;;;;;;5051483;28;20191;-89
2023/08/13 02:10:58;;;;;;;0.10;0.10;;;14.40;99.90;;;;;;5029692;28;20228;-88
2023/08/13 02:13:24;;;;;;;0.10;0.10;;;14.40;99.90;;;;;;5029766;28;20446;-89
2023/08/13 02:15:49;;;;;;;0.10;0.10;;;14.50;99.90;;;;;;5028521;28;20505;-88
2023/08/13 02:18:15;;;;;;;0.10;0.10;;;14.50;99.90;;;;;;5028213;28;20183;-89
2023/08/13 02:20:40;;;;;;;0.10;0.10;;;14.40;99.90;;;;;;5026455;28;20274;-88
2023/08/13 02:23:06;;;;;;;0.10;0.10;;;14.40;99.90;;;;;;5030097;28;20195;-89
2023/08/13 02:25:31;;;;;;;0.10;0.10;;;14.40;99.90;;;;;;5030009;28;20566;-88
2023/08/13 02:27:56;;;;;;;0.10;0.10;;;14.40;99.90;;;;;;5030246;28;20190;-88
2023/08/13 02:30:22;;;;;;;0.10;0.10;;;14.40;99.90;;;;;;5033986;28;20235;-88
2023/08/13 02:32:48;;;;;;;0.10;0.10;;;14.40;99.90;;;;;;5029284;28;20249;-88
2023/08/13 02:35:14;;;;;;;0.10;0.10;;;14.40;99.90;;;;;;5029850;28;20203;-89
2023/08/13 02:37:40;;;;;;;0.10;0.10;;;14.40;99.90;;;;;;5026826;28;20588;-88
2023/08/13 02:40:06;;;;;;;0.10;0.10;;;14.40;99.90;;;;;;5023521;28;20183;-88
2023/08/13 02:42:32;;;;;;;0.10;0.10;;;14.40;99.90;;;;;;5027684;28;20188;-91
2023/08/13 02:44:58;;;;;;;0.10;0.10;;;14.40;99.90;;;;;;5025106;28;20949;-88
2023/08/13 02:47:24;;;;;;;0.10;0.10;;;14.40;99.90;;;;;;5026991;28;20556;-88
2023/08/13 02:49:50;;;;;;;0.10;0.10;;;14.30;99.90;;;;;;5025704;28;20186;-90
2023/08/13 02:52:16;;;;;;;0.10;0.10;;;14.30;99.90;;;;;;5048299;28;20965;-89
2023/08/13 02:54:41;;;;;;;0.10;0.10;;;14.30;99.90;;;;;;5049504;28;20625;-88
2023/08/13 02:57:07;;;;;;;0.10;0.10;;;14.30;99.90;;;;;;5028844;28;20261;-94
2023/08/13 02:59:32;;;;;;;0.10;0.10;;;14.30;99.90;;;;;;5043819;28;20212;-88
2023/08/13 03:01:58;;;;;;;0.10;0.10;;;14.20;99.90;;;;;;5030391;28;20251;-90
2023/08/13 03:04:23;;;;;;;0.10;0.10;;;14.20;99.90;;;;;;5029853;28;20202;-89
2023/08/13 03:06:49;;;;;;;0.10;0.10;;;14.20;99.90;;;;;;5040039;28;20194;-89
2023/08/13 03:09:21;;;;;;;0.10;0.10;;;14.30;99.90;;;;;;5025678;28;20270;-89
2023/08/13 03:11:48;;;;;;;0.10;0.10;;;14.20;99.90;;;;;;5032423;28;20183;-92
2023/08/13 03:14:13;;;;;;;0.10;0.10;;;14.20;99.90;;;;;;5032798;28;20450;-91
2023/08/13 03:16:39;;;;;;;0.10;0.10;;;14.20;99.90;;;;;;5027651;28;20482;-91
2023/08/13 03:19:04;;;;;;;0.10;0.10;;;14.20;99.90;;;;;;5033560;28;20194;-91
2023/08/13 03:21:30;;;;;;;0.10;0.10;;;14.20;99.90;;;;;;5033316;28;20195;-91
2023/08/13 03:23:55;;;;;;;0.10;0.10;;;14.10;99.90;;;;;;5032852;28;20201;-90
2023/08/13 03:26:21;;;;;;;0.10;0.10;;;14.10;99.90;;;;;;5043014;28;20654;-91
2023/08/13 03:28:46;;;;;;;0.10;0.10;;;14.10;99.90;;;;;;5031233;28;20187;-89
2023/08/13 03:31:12;;;;;;;0.10;0.10;;;14.00;99.90;;;;;;5055209;28;20289;-89
2023/08/13 03:33:37;;;;;;;0.10;0.10;;;14.10;99.90;;;;;;5042626;28;20187;-91
2023/08/13 03:36:03;;;;;;;0.10;0.10;;;14.10;99.90;;;;;;5049906;28;20306;-92
2023/08/13 03:38:29;;;;;;;0.10;0.10;;;14.10;99.90;;;;;;5033315;28;20188;-87
2023/08/13 03:40:55;;;;;;;0.10;0.10;;;14.10;99.90;;;;;;5033253;28;20701;-90
2023/08/13 03:43:21;;;;;;;0.10;0.10;;;14.00;99.90;;;;;;5061790;28;20226;-93
2023/08/13 03:45:47;;;;;;;0.10;0.10;;;14.10;99.90;;;;;;5031503;28;20485;-91
2023/08/13 03:48:12;;;;;;;0.10;0.10;;;14.00;99.90;;;;;;5036054;28;20195;-90
2023/08/13 03:50:42;;;;;;;0.10;0.10;;;14.00;99.90;;;;;;5033929;28;20590;-89
2023/08/13 03:53:08;;;;;;;0.10;0.10;;;14.00;99.90;;;;;;5032830;28;20662;-91
2023/08/13 03:55:34;;;;;;;0.10;0.10;;;14.00;99.90;;;;;;5033694;28;20497;-89
2023/08/13 03:58:00;;;;;;;0.10;0.10;;;14.00;99.90;;;;;;5039282;28;20485;-88
2023/08/13 04:00:25;;;;;;;0.10;0.10;;;14.00;99.90;;;;;;5046983;28;20450;-89
2023/08/13 04:02:50;;;;;;;0.10;0.10;;;14.00;99.90;;;;;;5030514;28;20200;-90
2023/08/13 04:05:16;;;;;;;0.10;0.10;;;14.00;99.90;;;;;;5038341;28;20196;-90
2023/08/13 04:07:42;;;;;;;0.10;0.10;;;14.00;99.90;;;;;;5038207;28;20186;-89
2023/08/13 04:10:08;;;;;;;0.10;0.10;;;14.00;99.90;;;;;;5032420;28;20203;-89
2023/08/13 04:12:33;;;;;;;0.10;0.10;;;14.00;99.90;;;;;;5042938;28;20266;-91
2023/08/13 04:14:59;;;;;;;0.10;0.10;;;14.00;99.90;;;;;;5049835;28;20183;-91
2023/08/13 04:17:24;;;;;;;0.10;0.10;;;14.00;99.90;;;;;;5044074;28;20574;-89
2023/08/13 04:19:50;;;;;;;0.10;0.10;;;14.00;99.90;;;;;;5031472;28;20187;-88
2023/08/13 04:22:15;;;;;;;0.10;0.10;;;14.00;99.90;;;;;;5031071;28;20199;-88
2023/08/13 04:24:41;;;;;;;0.10;0.10;;;14.00;99.90;;;;;;5041030;28;20202;-90
2023/08/13 04:27:07;;;;;;;0.10;0.10;;;14.00;99.90;;;;;;5031750;28;20183;-88
2023/08/13 04:29:32;;;;;;;0.10;0.10;;;14.00;99.90;;;;;;5046196;28;20227;-88
2023/08/13 04:31:58;;;;;;;0.10;0.10;;;14.00;99.90;;;;;;5027480;28;20215;-88
2023/08/13 04:34:23;;;;;;;0.10;0.10;;;14.00;99.90;;;;;;5030440;28;20184;-90
2023/08/13 04:36:50;;;;;;;0.10;0.10;;;14.10;99.90;;;;;;5030222;28;20644;-88
2023/08/13 04:39:15;;;;;;;0.10;0.10;;;14.10;99.90;;;;;;5032083;28;20704;-88
2023/08/13 04:41:41;;;;;;;0.10;0.10;;;14.10;99.90;;;;;;5038510;28;20540;-88
2023/08/13 04:44:06;;;;;;;0.10;0.10;;;14.10;99.90;;;;;;5030814;28;20541;-89
2023/08/13 04:46:32;;;;;;;0.10;0.10;;;14.10;99.90;;;;;;5049609;28;20552;-88
2023/08/13 04:48:57;;;;;;;0.10;0.10;;;14.10;99.90;;;;;;5029927;28;20202;-88
2023/08/13 04:51:23;;;;;;;0.10;0.10;;;14.10;99.90;;;;;;5029638;28;20199;-91
2023/08/13 04:53:48;;;;;;;0.10;0.10;;;14.10;99.90;;;;;;5029638;28;20270;-88
2023/08/13 04:56:14;;;;;;;0.10;0.10;;;14.10;99.90;;;;;;5026669;28;20211;-87
2023/08/13 04:58:41;;;;;;;0.10;0.10;;;14.10;99.90;;;;;;5030503;28;20190;-88
2023/08/13 05:01:06;;;;;;;0.10;0.10;;;14.10;99.90;;;;;;5023804;28;20249;-90
2023/08/13 05:03:32;;;;;;;0.10;0.10;;;14.20;99.90;;;;;;5031661;28;20430;-88
2023/08/13 05:05:57;;;;;;;0.10;0.10;;;14.20;99.90;;;;;;5024505;28;20187;-89
2023/08/13 05:08:23;;;;;;;0.10;0.10;;;14.20;99.90;;;;;;5032901;28;20199;-89
2023/08/13 05:10:49;;;;;;;0.10;0.10;;;14.20;99.90;;;;;;5029134;28;20195;-89
2023/08/13 05:13:14;;;;;;;0.10;0.10;;;14.20;99.90;;;;;;5030710;28;20242;-90
2023/08/13 05:15:40;;;;;;;0.10;0.10;;;14.20;99.90;;;;;;5023665;28;20212;-89
2023/08/13 05:18:06;;;;;;;0.10;0.10;;;14.30;99.90;;;;;;5042926;28;20194;-89
2023/08/13 05:20:32;;;;;;;0.10;0.10;;;14.30;99.90;;;;;;5032496;28;20226;-90
2023/08/13 05:22:57;;;;;;;0.10;0.10;;;14.30;99.90;;;;;;5044244;28;20183;-88
2023/08/13 05:25:23;;;;;;;0.10;0.10;;;14.30;99.90;;;;;;5038882;28;20191;-89
2023/08/13 05:27:48;;;;;;;0.10;0.10;;;14.40;99.90;;;;;;5031015;28;20202;-90
2023/08/13 05:30:14;;;;;;;0.10;0.10;;;14.40;99.90;;;;;;5041956;28;20230;-90
2023/08/13 05:32:40;;;;;;;0.10;0.10;;;14.50;99.90;;;;;;5027843;28;20187;-90
2023/08/13 05:35:05;;;;;;;0.10;0.10;;;14.60;99.90;;;;;;5045944;28;20185;-91
2023/08/13 05:37:31;;;;;;;0.10;0.10;;;14.70;99.90;;;;;;5033204;28;20202;-95
2023/08/13 05:39:57;;;;;;;0.10;0.10;;;14.70;99.90;;;;;;5034200;28;20183;-92
2023/08/13 05:42:22;;;;;;;0.10;0.10;;;14.80;99.90;;;;;;5031430;28;20187;-93
2023/08/13 05:44:48;;;;;;;0.10;0.10;;;14.80;99.90;;;;;;5033871;28;20270;-88
2023/08/13 05:47:13;;;;;;;0.10;0.10;;;14.80;99.90;;;;;;5030411;28;20273;-87
2023/08/13 05:49:39;;;;;;;0.10;0.10;;;14.90;99.90;;;;;;5046104;28;20282;-91
2023/08/13 05:52:05;;;;;;;0.10;0.10;;;15.00;99.90;;;;;;5026689;28;20746;-90
2023/08/13 05:54:30;;;;;;;0.10;0.10;;;15.00;99.90;;;;;;5035150;28;20190;-92
2023/08/13 05:56:56;;;;;;;0.10;0.10;;;15.10;99.90;;;;;;5032890;28;20230;-94
2023/08/13 05:59:21;;;;;;;0.10;0.10;;;15.20;99.90;;;;;;5032961;28;20218;-95
2023/08/13 06:01:47;;;;;;;0.10;0.10;;;15.30;99.90;;;;;;5032331;28;20272;-91
2023/08/13 06:04:12;;;;;;;0.10;0.10;;;15.30;99.90;;;;;;5032051;28;20195;-92
2023/08/13 06:06:38;;;;;;;0.10;0.10;;;15.30;99.90;;;;;;5031634;28;20180;-93
2023/08/13 06:09:04;;;;;;;0.10;0.10;;;15.50;99.90;;;;;;5029283;28;20195;-91
2023/08/13 06:11:31;;;;;;;0.10;0.10;;;15.60;99.90;;;;;;5033169;28;20639;-96
2023/08/13 06:13:56;;;;;;;0.10;0.10;;;15.70;99.90;;;;;;5031215;28;20449;-92
2023/08/13 06:16:22;;;;;;;0.10;0.10;;;15.80;99.90;;;;;;5032850;28;20218;-93
2023/08/13 06:18:47;;;;;;;0.10;0.10;;;15.80;99.90;;;;;;5037338;28;20630;-96
2023/08/13 06:21:13;;;;;;;0.10;0.10;;;15.90;99.90;;;;;;5039458;28;20187;-93
2023/08/13 06:23:38;;;;;;;0.10;0.10;;;15.90;99.90;;;;;;5034261;28;20292;-94
2023/08/13 06:26:06;;;;;;;0.10;0.10;;;16.00;99.90;;;;;;5050374;28;20196;-93
2023/08/13 06:28:32;;;;;;;0.10;0.10;;;16.10;99.90;;;;;;5044549;28;20187;-93
2023/08/13 06:30:58;;;;;;;0.10;0.10;;;16.20;99.90;;;;;;5031488;28;20482;-95
2023/08/13 06:33:23;;;;;;;0.10;0.10;;;16.30;99.90;;;;;;5032963;28;20460;-92
2023/08/13 06:35:49;;;;;;;0.10;0.10;;;16.40;99.90;;;;;;5027838;28;20214;-91
2023/08/13 06:38:15;;;;;;;0.10;0.10;;;16.50;99.90;;;;;;5033830;28;20219;-88
2023/08/13 06:40:41;;;;;;;0.10;0.10;;;16.60;99.90;;;;;;5028056;28;20188;-88
2023/08/13 06:43:07;;;;;;;0.10;0.10;;;16.60;99.90;;;;;;5027528;28;20792;-90
2023/08/13 06:45:32;;;;;;;0.10;0.10;;;16.70;99.90;;;;;;5021522;28;20462;-89
2023/08/13 06:47:58;;;;;;;0.10;0.10;;;16.70;99.90;;;;;;5030947;28;20180;-88
2023/08/13 06:50:25;;;;;;;0.10;0.10;;;16.70;99.90;;;;;;5031422;28;20286;-91
2023/08/13 06:52:51;;;;;;;0.10;0.10;;;16.70;99.90;;;;;;5040282;28;20206;-90
2023/08/13 06:55:16;;;;;;;0.10;0.10;;;16.70;99.90;;;;;;5030519;28;20949;-89
2023/08/13 06:57:42;;;;;;;0.10;0.10;;;16.70;99.90;;;;;;5033946;28;20565;-88
2023/08/13 07:00:08;;;;;;;0.10;0.10;;;16.90;99.90;;;;;;5033762;28;20562;-91
2023/08/13 07:02:33;;;;;;;0.10;0.10;;;17.00;99.90;;;;;;5034275;28;20179;-92
2023/08/13 07:04:59;;;;;;;0.10;0.10;;;17.00;99.90;;;;;;5037898;28;20430;-92
2023/08/13 07:07:24;;;;;;;0.10;0.10;;;17.10;99.90;;;;;;5050838;28;20556;-89
2023/08/13 07:09:51;;;;;;;0.10;0.00;;;17.00;99.90;;;;;;5033258;28;20865;-90
2023/08/13 07:12:16;;;;;;;0.10;0.00;;;17.10;99.90;;;;;;5038783;28;20673;-89
2023/08/13 07:14:42;;;;;;;0.10;0.10;;;17.10;99.90;;;;;;5030968;28;20438;-89
2023/08/13 07:17:08;;;;;;;0.10;0.10;;;17.10;99.90;;;;;;5033825;28;20297;-90
2023/08/13 07:19:33;;;;;;;0.10;0.07;;;17.20;99.90;;;;;;5047629;28;20191;-93
2023/08/13 07:21:59;;;;;;;0.10;0.10;;;17.20;99.90;;;;;;5033245;28;20192;-92
2023/08/13 07:24:24;;;;;;;0.10;0.10;;;17.20;99.90;;;;;;5034040;28;20188;-91
2023/08/13 07:26:50;;;;;;;0.10;0.10;;;17.30;99.90;;;;;;5031880;28;20179;-92
2023/08/13 07:29:15;;;;;;;0.10;0.10;;;17.30;99.90;;;;;;5044618;28;20219;-95
2023/08/13 07:31:41;;;;;;;0.10;0.10;;;17.40;99.90;;;;;;5032203;28;20706;-95
2023/08/13 07:34:06;;;;;;;0.10;0.10;;;17.60;99.90;;;;;;5032345;28;20266;-92
2023/08/13 07:36:32;;;;;;;0.10;0.10;;;17.70;99.90;;;;;;5030039;28;20273;-90
2023/08/13 07:38:57;;;;;;;0.10;0.10;;;17.70;99.90;;;;;;5024372;28;20184;-93
2023/08/13 07:41:23;;;;;;;0.10;0.10;;;17.70;99.90;;;;;;5028520;28;20192;-93
2023/08/13 07:43:48;;;;;;;0.10;0.10;;;17.90;99.90;;;;;;5031635;28;20706;-91
2023/08/13 07:46:14;;;;;;;0.10;0.00;;;18.10;99.90;;;;;;5028133;28;20313;-90
2023/08/13 07:48:39;;;;;;;0.10;0.00;;;18.10;99.90;;;;;;5029173;28;20192;-90
2023/08/13 07:51:05;;;;;;;0.10;0.00;;;18.00;99.90;;;;;;5030600;28;20188;-90
2023/08/13 07:53:31;;;;;;;0.10;0.10;;;18.10;99.90;;;;;;5032194;28;20218;-91
2023/08/13 07:55:57;;;;;;;0.10;0.10;;;18.10;99.90;;;;;;5030808;28;20269;-90
2023/08/13 07:58:22;;;;;;;0.10;0.00;;;18.20;99.90;;;;;;5029496;28;20446;-91
2023/08/13 08:00:48;;;;;;;0.10;0.10;;;18.40;99.90;;;;;;5033735;28;20702;-92
2023/08/13 08:03:14;;;;;;;0.10;0.00;;;18.30;99.90;;;;;;5032918;28;20184;-91
2023/08/13 08:05:41;;;;;;;0.10;0.00;;;18.50;99.90;;;;;;5033261;28;20183;-94
2023/08/13 08:08:06;;;;;;;0.10;0.00;;;18.60;99.90;;;;;;5028934;28;20188;-90
2023/08/13 08:10:32;;;;;;;0.10;0.10;;;18.90;99.90;;;;;;5031691;28;20926;-91
2023/08/13 08:12:58;;;;;;;0.10;0.00;;;18.90;99.90;;;;;;5031707;28;20627;-92
2023/08/13 08:15:24;;;;;;;0.10;0.00;;;19.10;99.90;;;;;;5026418;28;21011;-91
2023/08/13 08:17:49;;;;;;;0.10;0.00;;;19.40;99.90;;;;;;5043459;28;20766;-90
2023/08/13 08:20:15;;;;;;;0.10;0.10;;;19.50;99.90;;;;;;5031494;28;20442;-93
2023/08/13 08:22:40;;;;;;;0.10;0.00;;;19.60;99.90;;;;;;5031902;28;20265;-92
2023/08/13 08:25:09;;;;;;;0.10;0.00;;;19.70;99.90;;;;;;5030374;28;20269;-92
2023/08/13 08:27:36;;;;;;;0.10;0.00;;;19.70;99.90;;;;;;5027747;28;20643;-91
2023/08/13 08:30:02;;;;;;;0.10;0.00;;;19.90;99.90;;;;;;5029298;28;20474;-90
2023/08/13 08:32:29;;;;;;;0.10;0.00;;;20.20;99.90;;;;;;5030313;28;20453;-92
2023/08/13 08:34:54;;;;;;;0.10;0.00;;;20.00;99.90;;;;;;5027129;28;20472;-93
2023/08/13 08:37:20;;;;;;;0.10;0.00;;;19.90;99.90;;;;;;5027692;28;20961;-91
2023/08/13 08:39:45;;;;;;;0.10;0.00;;;19.80;99.90;;;;;;5027765;28;20280;-93
2023/08/13 08:42:11;;;;;;;0.07;0.00;;;19.50;99.90;;;;;;5044100;28;20191;-91
2023/08/13 08:44:41;;;;;;;0.10;0.00;;;19.70;99.90;;;;;;5025468;28;20206;-89
2023/08/13 08:47:08;;;;;;;0.10;0.10;;;19.40;99.90;;;;;;5025939;28;20665;-92
2023/08/13 08:49:35;;;;;;;0.10;0.00;;;19.10;99.90;;;;;;5024486;28;20473;-91
2023/08/13 08:52:01;;;;;;;0.10;0.00;;;19.10;99.90;;;;;;5033821;28;20461;-90
2023/08/13 08:54:26;;;;;;;0.07;0.00;;;19.50;99.90;;;;;;5029167;28;20438;-90
2023/08/13 08:56:52;;;;;;;0.10;0.00;;;19.40;99.90;;;;;;5028778;28;20486;-92
2023/08/13 08:59:18;;;;;;;0.10;0.00;;;19.80;99.90;;;;;;5031203;28;20195;-90
2023/08/13 09:01:43;;;;;;;0.10;0.00;;;19.80;99.90;;;;;;5027823;28;20184;-91
2023/08/13 09:04:09;;;;;;;0.10;0.00;;;19.80;99.90;;;;;;5030866;28;20810;-92
2023/08/13 09:06:53;;;;;;;0.10;0.00;;;19.90;99.90;;;;;;5033674;28;20184;-92
2023/08/13 09:09:18;;;;;;;0.10;0.00;;;20.20;99.90;;;;;;5028214;28;20546;-90
2023/08/13 09:11:46;;;;;;;0.10;0.00;;;20.30;99.90;;;;;;5026147;28;20450;-89
2023/08/13 09:14:11;;;;;;;0.10;0.00;;;20.20;99.90;;;;;;5020649;28;20191;-88
2023/08/13 09:16:37;;;;;;;0.10;0.00;;;20.10;99.90;;;;;;5027570;28;20485;-92
2023/08/13 09:19:03;;;;;;;0.10;0.00;;;20.10;99.90;;;;;;5026494;28;20258;-89
2023/08/13 09:21:29;;;;;;;0.10;0.00;;;20.10;99.90;;;;;;5029546;28;20482;-88
2023/08/13 09:23:58;;;;;;;0.10;0.00;;;19.90;99.90;;;;;;5040106;28;20192;-89
2023/08/13 09:26:27;;;;;;;0.10;0.00;;;20.20;99.90;;;;;;5029470;28;20202;-89
2023/08/13 09:28:53;;;;;;;0.07;0.00;;;20.20;99.90;;;;;;5022665;28;20516;-90
2023/08/13 09:31:18;;;;;;;0.10;0.00;;;20.10;99.90;;;;;;5032188;28;20626;-88
2023/08/13 09:33:47;;;;;;;0.00;0.00;;;20.20;99.90;;;;;;5043991;28;20184;-88
2023/08/13 09:36:12;;;;;;;0.10;0.00;;;20.50;99.90;;;;;;5048310;28;20297;-90
2023/08/13 09:38:38;;;;;;;0.10;0.00;;;20.80;99.90;;;;;;5035178;28;20591;-89
2023/08/13 09:41:04;;;;;;;0.00;0.00;;;21.50;99.90;;;;;;5038550;28;20194;-88
2023/08/13 09:43:31;;;;;;;0.00;0.00;;;22.00;99.90;;;;;;5036174;28;20194;-89
2023/08/13 09:46:00;;;;;;;0.00;0.00;;;22.40;99.90;;;;;;5035983;28;20943;-90
2023/08/13 09:48:27;;;;;;;0.10;0.00;;;22.10;99.90;;;;;;5066611;28;20455;-91
2023/08/13 09:50:55;;;;;;;0.10;0.00;;;21.50;99.90;;;;;;5048577;28;20453;-90
2023/08/13 09:53:24;;;;;;;0.10;0.00;;;21.60;99.90;;;;;;5050144;28;20521;-89
2023/08/13 09:55:57;;;;;;;0.10;0.00;;;21.10;99.90;;;;;;5029067;28;20488;-88
2023/08/13 09:58:22;;;;;;;0.10;0.00;;;21.10;99.90;;;;;;5043942;28;20440;-91
2023/08/13 10:00:49;;;;;;;0.10;0.00;;;21.50;99.90;;;;;;5024928;28;20450;-89
2023/08/13 10:03:16;;;;;;;0.10;0.00;;;21.40;99.90;;;;;;5046265;28;20188;-88
2023/08/13 10:05:43;;;;;;;0.10;0.00;;;21.40;99.90;;;;;;5047429;28;20519;-89
2023/08/13 10:08:09;;;;;;;0.10;0.00;;;21.70;99.90;;;;;;5038331;28;20469;-90
2023/08/13 10:10:37;;;;;;;0.10;0.10;;;21.80;99.90;;;;;;5026967;28;20873;-89
2023/08/13 10:13:03;;;;;;;0.10;0.00;;;21.60;99.90;;;;;;5026907;28;20545;-90
2023/08/13 10:15:31;;;;;;;0.10;0.00;;;21.60;99.90;;;;;;5030277;28;20469;-93
2023/08/13 10:17:58;;;;;;;0.10;0.00;;;21.40;99.90;;;;;;5042538;28;20578;-90
2023/08/13 10:20:25;;;;;;;0.10;0.00;;;21.10;99.90;;;;;;5029790;28;20439;-90
2023/08/13 10:22:53;;;;;;;0.10;0.00;;;20.80;99.90;;;;;;5030685;28;20800;-90
2023/08/13 10:25:33;;;;;;;0.10;0.00;;;20.70;99.90;;;;;;5044193;28;20450;-92
2023/08/13 10:27:59;;;;;;;0.10;0.00;;;20.60;99.90;;;;;;5025906;28;20786;-88
2023/08/13 10:30:25;;;;;;;0.10;0.00;;;20.70;99.90;;;;;;5029923;28;20985;-89
2023/08/13 10:32:53;;;;;;;0.10;0.00;;;20.60;99.90;;;;;;5032805;28;20566;-87
2023/08/13 10:35:28;;;;;;;0.10;0.00;;;20.90;99.90;;;;;;5024169;28;20446;-87
2023/08/13 10:37:56;;;;;;;0.10;0.00;;;22.40;99.90;;;;;;5032150;28;20460;-89
2023/08/13 10:40:22;;;;;;;0.00;0.00;;;23.10;99.90;;;;;;5025437;28;20445;-86
2023/08/13 10:42:50;;;;;;;0.00;0.00;;;23.70;99.90;;;;;;5044688;28;20450;-88
2023/08/13 10:45:17;;;;;;;0.10;0.00;;;23.20;99.90;;;;;;5033911;28;20179;-88
2023/08/13 10:47:57;;;;;;;0.07;0.00;;;22.70;99.90;;;;;;5039870;28;20524;-87
2023/08/13 10:50:38;;;;;;;0.10;0.00;;;21.90;99.90;;;;;;5026641;28;20446;-88
2023/08/13 10:53:08;;;;;;;0.00;0.00;;;21.90;99.90;;;;;;5026989;28;20482;-89
2023/08/13 10:55:59;;;;;;;0.10;0.00;;;21.70;99.90;;;;;;5012937;28;20580;-88
2023/08/13 10:58:27;;;;;;;0.10;0.00;;;21.60;99.90;;;;;;5019744;28;20449;-87
2023/08/13 11:01:09;;;;;;;0.10;0.00;;;21.60;99.90;;;;;;5023924;28;20442;-87
2023/08/13 11:03:45;;;;;;;0.10;0.00;;;21.80;99.90;;;;;;5012668;28;20446;-87
2023/08/13 11:06:11;;;;;;;0.10;0.00;;;23.40;99.90;;;;;;5034404;28;20475;-86
2023/08/13 11:08:42;;;;;;;0.10;0.00;;;23.50;99.90;;;;;;5026582;28;20453;-87
2023/08/13 11:11:08;;;;;;;0.10;0.00;;;23.40;99.90;;;;;;5042820;28;20425;-88
2023/08/13 11:13:33;;;;;;;0.00;0.00;;;23.00;99.90;;;;;;5023211;28;20438;-87
2023/08/13 11:15:59;;;;;;;0.00;0.00;;;22.80;99.90;;;;;;5029121;28;20242;-88
2023/08/13 11:18:25;;;;;;;0.10;0.00;;;23.00;99.90;;;;;;5028320;28;20560;-89
2023/08/13 11:20:51;;;;;;;0.10;0.00;;;23.40;99.90;;;;;;5027705;28;20195;-90
2023/08/13 11:23:18;;;;;;;0.10;0.00;;;23.80;99.90;;;;;;5022540;28;20180;-90
2023/08/13 11:25:48;;;;;;;0.10;0.00;;;23.90;99.90;;;;;;5038064;28;20450;-90
2023/08/13 11:28:27;;;;;;;0.00;0.00;;;24.60;99.90;;;;;;5025094;28;21023;-90
2023/08/13 11:30:56;;;;;;;0.10;0.00;;;25.10;99.90;;;;;;5024196;28;20531;-88
2023/08/13 11:33:22;;;;;;;0.00;0.00;;;24.80;99.90;;;;;;5026659;28;20445;-91
2023/08/13 11:35:48;;;;;;;0.00;0.00;;;25.70;99.90;;;;;;5023590;28;20493;-89
2023/08/13 11:38:14;;;;;;;0.00;0.00;;;25.50;99.90;;;;;;5023363;28;21447;-87
2023/08/13 11:40:40;;;;;;;0.00;0.00;;;25.90;99.90;;;;;;5026600;28;20210;-89
2023/08/13 11:43:10;;;;;;;0.00;0.00;;;25.70;99.90;;;;;;5027770;28;20919;-88
2023/08/13 11:45:38;;;;;;;0.00;0.00;;;25.50;99.90;;;;;;5026380;28;20239;-87
2023/08/13 11:48:15;;;;;;;0.00;0.00;;;25.00;99.90;;;;;;5026697;28;20526;-88
2023/08/13 11:50:45;;;;;;;0.00;0.00;;;24.10;99.90;;;;;;5042638;28;21250;-88
2023/08/13 11:53:16;;;;;;;0.00;0.00;;;23.40;99.90;;;;;;5027325;28;20441;-87
2023/08/13 11:55:44;;;;;;;0.00;0.00;;;22.80;99.90;;;;;;5026530;28;20481;-87
2023/08/13 11:58:10;;;;;;;0.00;0.00;;;22.60;99.90;;;;;;5031792;28;21160;-88
2023/08/13 12:00:36;;;;;;;0.00;0.00;;;22.70;99.90;;;;;;5036136;28;20572;-88
2023/08/13 12:03:02;;;;;;;0.00;0.00;;;22.90;99.90;;;;;;5031889;28;20442;-87
2023/08/13 12:05:30;;;;;;;0.00;0.00;;;23.40;99.90;;;;;;5027768;28;20545;-88
2023/08/13 12:07:56;;;;;;;0.00;0.00;;;24.70;99.90;;;;;;5028234;28;20446;-90
2023/08/13 12:10:22;;;;;;;0.00;0.00;;;25.00;99.90;;;;;;5027382;28;20446;-90
2023/08/13 12:12:48;;;;;;;0.00;0.00;;;25.00;99.90;;;;;;5028547;28;20452;-89
2023/08/13 12:15:13;;;;;;;0.00;0.00;;;24.40;99.90;;;;;;5028862;28;20171;-90
2023/08/13 12:17:39;;;;;;;0.00;0.00;;;24.30;99.90;;;;;;5029238;28;20253;-87
2023/08/13 12:20:06;;;;;;;0.00;0.00;;;25.40;99.90;;;;;;5022686;28;20186;-87
2023/08/13 12:22:31;;;;;;;0.00;0.00;;;26.70;99.90;;;;;;5028715;28;20191;-89
2023/08/13 12:24:57;;;;;;;0.00;0.00;;;26.70;99.90;;;;;;5028452;28;20446;-90
2023/08/13 12:27:22;;;;;;;0.00;0.00;;;26.80;99.90;;;;;;5028077;28;20219;-87
2023/08/13 12:29:48;;;;;;;0.00;0.00;;;26.40;99.90;;;;;;5028716;28;20707;-89
2023/08/13 12:32:13;;;;;;;0.00;0.00;;;27.00;99.90;;;;;;5019712;28;20419;-88
2023/08/13 12:34:39;;;;;;;0.00;0.00;;;26.50;99.90;;;;;;5025699;28;20935;-87
2023/08/13 12:37:04;;;;;;;0.00;0.00;;;25.80;99.90;;;;;;5024776;28;20301;-88
2023/08/13 12:39:30;;;;;;;0.00;0.00;;;25.20;99.90;;;;;;5025478;28;20176;-87
2023/08/13 12:41:55;;;;;;;0.00;0.00;;;24.60;99.90;;;;;;5022544;28;20219;-87
2023/08/13 12:44:21;;;;;;;0.00;0.00;;;24.50;99.90;;;;;;5026961;28;20261;-87